Terminal Aerodrome Forecast
Issued by NWS

Home | Current Version | Previous Version | Graphics & Text | Print | Product List | Glossary On
Versions: 1 2 3 4 5 6 7 8 9 10 11 12 13 14 15
837
FTUS43 KMPX 251746
TAFRNH
TAF
KRNH 251746Z 2518/2618 32013G21KT P6SM SKC
     FM252100 28009KT P6SM SCT120
     FM260300 21008KT P6SM OVC090
     FM261200 21006KT P6SM BKN050
     FM261500 24008KT P6SM BKN100=

USA.gov is the U.S. government's official web portal to all federal, state and local government web resources and services.